createdAt,value
2018-08-11T00:00:40.125Z,928.71
2018-08-11T00:01:40.096Z,928.70
2018-08-11T00:02:40.072Z,928.80
2018-08-11T00:03:40.051Z,928.82
2018-08-11T00:04:40.023Z,928.88
2018-08-11T00:05:39.992Z,928.85
2018-08-11T00:06:39.979Z,928.91
2018-08-11T00:07:39.947Z,928.93
2018-08-11T00:08:39.922Z,929.04
2018-08-11T00:09:40.832Z,929.01
2018-08-11T00:10:39.881Z,929.03
2018-08-11T00:11:39.831Z,929.06
2018-08-11T00:12:39.833Z,929.09
2018-08-11T00:13:39.806Z,929.04
2018-08-11T00:14:39.765Z,929.15
2018-08-11T00:15:39.757Z,929.06
2018-08-11T00:16:39.725Z,929.12
2018-08-11T00:17:39.725Z,929.13
2018-08-11T00:18:39.671Z,929.17
2018-08-11T00:19:39.658Z,929.23
2018-08-11T00:20:39.633Z,929.15
2018-08-11T00:21:39.592Z,929.24
2018-08-11T00:22:39.585Z,929.25
2018-08-11T00:23:39.556Z,929.29
2018-08-11T00:24:39.541Z,929.31
2018-08-11T00:25:39.492Z,929.34
2018-08-11T00:26:39.492Z,929.35
2018-08-11T00:27:39.462Z,929.37
2018-08-11T00:28:39.421Z,929.37
2018-08-11T00:29:39.397Z,929.34
2018-08-11T00:30:39.393Z,929.36
2018-08-11T00:31:39.368Z,929.38
2018-08-11T00:32:39.352Z,929.33
2018-08-11T00:33:39.326Z,929.33
2018-08-11T00:34:39.288Z,929.32
2018-08-11T00:35:39.267Z,929.33
2018-08-11T00:36:39.244Z,929.39
2018-08-11T00:37:39.218Z,929.40
2018-08-11T00:38:39.195Z,929.38
2018-08-11T00:39:39.174Z,929.40
2018-08-11T00:40:39.157Z,929.30
2018-08-11T00:41:39.129Z,929.35
2018-08-11T00:42:39.096Z,929.36
2018-08-11T00:43:39.070Z,929.32
2018-08-11T00:44:39.059Z,929.37
2018-08-11T00:45:39.030Z,929.22
2018-08-11T00:46:39.016Z,929.38
2018-08-11T00:47:38.977Z,929.36
2018-08-11T00:48:38.951Z,929.33
2018-08-11T00:49:38.942Z,929.32
2018-08-11T00:50:38.908Z,929.35
2018-08-11T00:51:38.882Z,929.28
2018-08-11T00:52:38.858Z,929.29
2018-08-11T00:53:38.827Z,929.29
2018-08-11T00:54:38.803Z,929.29
2018-08-11T00:55:38.784Z,929.30
2018-08-11T00:56:38.744Z,929.39
2018-08-11T00:57:38.740Z,929.43
2018-08-11T00:58:38.706Z,929.43
2018-08-11T00:59:38.680Z,929.43
2018-08-11T01:00:38.663Z,929.47
2018-08-11T01:01:38.621Z,929.42
2018-08-11T01:02:38.623Z,929.46
2018-08-11T01:03:38.588Z,929.45
2018-08-11T01:04:38.564Z,929.45
2018-08-11T01:05:38.541Z,929.48
2018-08-11T01:06:38.510Z,929.43
2018-08-11T01:07:38.484Z,929.45
2018-08-11T01:08:38.448Z,929.41
2018-08-11T01:09:38.438Z,929.39
2018-08-11T01:10:38.411Z,929.36
2018-08-11T01:11:38.385Z,929.40
2018-08-11T01:12:38.345Z,929.44
2018-08-11T01:13:38.322Z,929.43
2018-08-11T01:14:38.314Z,929.48
2018-08-11T01:15:38.296Z,929.45
2018-08-11T01:16:38.274Z,929.46
2018-08-11T01:17:38.244Z,929.47
2018-08-11T01:18:38.219Z,929.46
2018-08-11T01:19:38.193Z,929.42
2018-08-11T01:20:38.163Z,929.47
2018-08-11T01:21:38.146Z,929.49
2018-08-11T01:22:38.116Z,929.40
2018-08-11T01:23:38.097Z,929.43
2018-08-11T01:24:38.064Z,929.41
2018-08-11T01:25:38.044Z,929.43
2018-08-11T01:26:38.017Z,929.49
2018-08-11T01:27:37.995Z,929.49
2018-08-11T01:28:37.951Z,929.43
2018-08-11T01:29:37.949Z,929.51
2018-08-11T01:30:37.907Z,929.47
2018-08-11T01:31:37.898Z,929.51
2018-08-11T01:32:37.849Z,929.49
2018-08-11T01:33:37.844Z,929.50
2018-08-11T01:34:37.802Z,929.54
2018-08-11T01:35:37.796Z,929.51
2018-08-11T01:36:37.778Z,929.48
2018-08-11T01:37:37.747Z,929.42
2018-08-11T01:38:37.705Z,929.44
2018-08-11T01:39:37.696Z,929.46
2018-08-11T01:40:37.666Z,929.38
2018-08-11T01:41:37.642Z,929.43
2018-08-11T01:42:37.625Z,929.32
2018-08-11T01:43:37.597Z,929.36
2018-08-11T01:44:37.572Z,929.27
2018-08-11T01:45:37.529Z,929.36
2018-08-11T01:46:37.520Z,929.37
2018-08-11T01:47:37.475Z,929.38
2018-08-11T01:48:37.474Z,929.42
2018-08-11T01:49:37.446Z,929.35
2018-08-11T01:50:37.422Z,929.39
2018-08-11T01:51:37.397Z,929.40
2018-08-11T01:52:37.374Z,929.37
2018-08-11T01:53:37.329Z,929.40
2018-08-11T01:54:37.316Z,929.41
2018-08-11T01:55:37.284Z,929.38
2018-08-11T01:56:37.257Z,929.48
2018-08-11T01:57:37.244Z,929.46
2018-08-11T01:58:37.203Z,929.50
2018-08-11T01:59:37.201Z,929.50
2018-08-11T02:00:37.174Z,929.48
2018-08-11T02:01:37.155Z,929.50
2018-08-11T02:02:37.117Z,929.52
2018-08-11T02:03:37.095Z,929.47
2018-08-11T02:04:37.142Z,929.46
2018-08-11T02:05:37.057Z,929.48
2018-08-11T02:06:37.029Z,929.41
2018-08-11T02:07:36.999Z,929.39
2018-08-11T02:08:36.976Z,929.42
2018-08-11T02:09:36.929Z,929.42
2018-08-11T02:10:36.916Z,929.40
2018-08-11T02:11:36.898Z,929.44
2018-08-11T02:12:36.873Z,929.43
2018-08-11T02:13:36.832Z,929.35
2018-08-11T02:14:36.818Z,929.42
2018-08-11T02:15:36.807Z,929.37
2018-08-11T02:16:36.768Z,929.35
2018-08-11T02:17:36.747Z,929.34
2018-08-11T02:18:36.723Z,929.35
2018-08-11T02:19:36.682Z,929.40
2018-08-11T02:20:36.653Z,929.37
2018-08-11T02:21:36.651Z,929.34
2018-08-11T02:22:36.630Z,929.45
2018-08-11T02:23:36.595Z,929.39
2018-08-11T02:24:36.604Z,929.42
2018-08-11T02:25:36.551Z,929.47
2018-08-11T02:26:36.503Z,929.44
2018-08-11T02:27:36.491Z,929.46
2018-08-11T02:28:36.473Z,929.46
2018-08-11T02:29:36.444Z,929.46
2018-08-11T02:30:36.401Z,929.45
2018-08-11T02:31:36.398Z,929.49
2018-08-11T02:32:36.370Z,929.51
2018-08-11T02:33:36.344Z,929.44
2018-08-11T02:34:36.316Z,929.40
2018-08-11T02:35:36.290Z,929.47
2018-08-11T02:36:36.270Z,929.44
2018-08-11T02:37:36.246Z,929.42
2018-08-11T02:38:36.221Z,929.38
2018-08-11T02:39:36.192Z,929.34
2018-08-11T02:40:36.168Z,929.35
2018-08-11T02:41:36.129Z,929.34
2018-08-11T02:42:36.120Z,929.35
2018-08-11T02:43:36.090Z,929.36
2018-08-11T02:44:36.067Z,929.42
2018-08-11T02:45:36.026Z,929.38
2018-08-11T02:46:36.017Z,929.38
2018-08-11T02:47:35.991Z,929.35
2018-08-11T02:48:35.965Z,929.36
2018-08-11T02:49:35.938Z,929.35
2018-08-11T02:50:35.920Z,929.43
2018-08-11T02:51:35.898Z,929.43
2018-08-11T02:52:35.860Z,929.46
2018-08-11T02:53:35.844Z,929.46
2018-08-11T02:54:35.815Z,929.45
2018-08-11T02:55:35.792Z,929.44
2018-08-11T02:56:35.770Z,929.41
2018-08-11T02:57:35.744Z,929.45
2018-08-11T02:58:35.717Z,929.38
2018-08-11T02:59:35.694Z,929.36
2018-08-11T03:00:35.667Z,929.40
2018-08-11T03:01:35.647Z,929.45
2018-08-11T03:02:35.683Z,929.41
2018-08-11T03:03:35.586Z,929.46
2018-08-11T03:04:35.562Z,929.45
2018-08-11T03:05:35.535Z,929.44
2018-08-11T03:06:35.508Z,929.46
2018-08-11T03:07:35.494Z,929.39
2018-08-11T03:08:35.459Z,929.41
2018-08-11T03:09:35.444Z,929.39
2018-08-11T03:10:35.413Z,929.32
2018-08-11T03:11:35.386Z,929.41
2018-08-11T03:12:35.364Z,929.37
2018-08-11T03:13:35.335Z,929.40
2018-08-11T03:14:35.312Z,929.41
2018-08-11T03:15:35.287Z,929.43
2018-08-11T03:16:35.256Z,929.42
2018-08-11T03:17:35.215Z,929.43
2018-08-11T03:18:35.211Z,929.48
2018-08-11T03:19:35.162Z,929.43
2018-08-11T03:20:35.156Z,929.47
2018-08-11T03:21:35.138Z,929.47
2018-08-11T03:22:35.103Z,929.43
2018-08-11T03:23:35.084Z,929.39
2018-08-11T03:24:35.061Z,929.43
2018-08-11T03:25:35.029Z,929.45
2018-08-11T03:26:34.999Z,929.46
2018-08-11T03:27:34.986Z,929.45
2018-08-11T03:28:34.953Z,929.43
2018-08-11T03:29:34.930Z,929.47
2018-08-11T03:30:34.904Z,929.45
2018-08-11T03:31:34.876Z,929.43
2018-08-11T03:32:34.859Z,929.46
2018-08-11T03:33:34.805Z,929.40
2018-08-11T03:34:34.797Z,929.41
2018-08-11T03:35:34.773Z,929.38
2018-08-11T03:36:34.747Z,929.36
2018-08-11T03:37:34.701Z,929.29
2018-08-11T03:38:34.686Z,929.32
2018-08-11T03:39:34.669Z,929.31
2018-08-11T03:40:34.650Z,929.33
2018-08-11T03:41:34.623Z,929.33
2018-08-11T03:42:34.594Z,929.33
2018-08-11T03:43:34.566Z,929.34
2018-08-11T03:44:34.528Z,929.35
2018-08-11T03:45:34.519Z,929.35
2018-08-11T03:46:34.497Z,929.37
2018-08-11T03:47:34.470Z,929.36
2018-08-11T03:48:34.437Z,929.34
2018-08-11T03:49:34.415Z,929.33
2018-08-11T03:50:34.393Z,929.31
2018-08-11T03:51:34.363Z,929.29
2018-08-11T03:52:34.430Z,929.31
2018-08-11T03:53:34.318Z,929.33
2018-08-11T03:54:34.287Z,929.31
2018-08-11T03:55:34.266Z,929.27
2018-08-11T03:56:34.235Z,929.32
2018-08-11T03:57:34.215Z,929.28
2018-08-11T03:58:34.185Z,929.34
2018-08-11T03:59:34.142Z,929.23
2018-08-11T04:00:34.133Z,929.26
2018-08-11T04:01:34.107Z,929.29
2018-08-11T04:02:34.081Z,929.28
2018-08-11T04:03:34.039Z,929.25
2018-08-11T04:04:34.012Z,929.22
2018-08-11T04:05:34.008Z,929.17
2018-08-11T04:06:33.998Z,929.12
2018-08-11T04:07:33.952Z,929.17
2018-08-11T04:08:33.929Z,929.20
2018-08-11T04:09:33.914Z,929.19
2018-08-11T04:10:33.874Z,929.16
2018-08-11T04:11:33.836Z,929.15
2018-08-11T04:12:33.829Z,929.15
2018-08-11T04:13:33.802Z,929.12
2018-08-11T04:14:33.776Z,929.14
2018-08-11T04:15:33.729Z,929.16
2018-08-11T04:16:33.722Z,929.22
2018-08-11T04:17:33.694Z,929.26
2018-08-11T04:18:33.669Z,929.28
2018-08-11T04:19:33.640Z,929.29
2018-08-11T04:20:33.623Z,929.24
2018-08-11T04:21:33.595Z,929.22
2018-08-11T04:22:33.563Z,929.21
2018-08-11T04:23:33.545Z,929.15
2018-08-11T04:24:33.498Z,929.14
2018-08-11T04:25:33.500Z,929.11
2018-08-11T04:26:33.462Z,929.12
2018-08-11T04:27:33.441Z,929.15
2018-08-11T04:28:33.400Z,929.15
2018-08-11T04:29:33.394Z,929.11
2018-08-11T04:30:33.346Z,929.12
2018-08-11T04:31:33.333Z,929.13
2018-08-11T04:32:33.313Z,929.15
2018-08-11T04:33:33.289Z,929.14
2018-08-11T04:34:33.260Z,929.17
2018-08-11T04:35:33.243Z,929.19
2018-08-11T04:36:33.213Z,929.11
2018-08-11T04:37:33.187Z,929.14
2018-08-11T04:38:33.138Z,929.18
2018-08-11T04:39:33.131Z,929.17
2018-08-11T04:40:33.091Z,929.15
2018-08-11T04:41:33.061Z,929.15
2018-08-11T04:42:33.052Z,929.12
2018-08-11T04:43:33.027Z,929.10
2018-08-11T04:44:33.003Z,929.11
2018-08-11T04:45:32.980Z,929.08
2018-08-11T04:46:32.953Z,929.04
2018-08-11T04:47:32.930Z,928.98
2018-08-11T04:48:32.899Z,929.00
2018-08-11T04:49:32.859Z,928.95
2018-08-11T04:50:32.853Z,928.94
2018-08-11T04:51:32.803Z,928.96
2018-08-11T04:52:32.783Z,928.96
2018-08-11T04:53:32.767Z,928.95
2018-08-11T04:54:32.747Z,928.97
2018-08-11T04:55:32.721Z,928.98
2018-08-11T04:56:32.696Z,928.94
2018-08-11T04:57:32.667Z,928.90
2018-08-11T04:58:32.643Z,928.95
2018-08-11T04:59:32.613Z,929.01
2018-08-11T05:00:32.592Z,928.91
2018-08-11T05:01:32.563Z,928.90
2018-08-11T05:02:32.542Z,928.89
2018-08-11T05:03:32.508Z,928.99
2018-08-11T05:04:32.487Z,928.95
2018-08-11T05:05:32.459Z,928.98
2018-08-11T05:06:32.436Z,928.94
2018-08-11T05:07:32.409Z,928.95
2018-08-11T05:08:32.380Z,928.92
2018-08-11T05:09:32.354Z,928.96
2018-08-11T05:10:32.333Z,928.98
2018-08-11T05:11:32.306Z,928.98
2018-08-11T05:12:32.278Z,928.98
2018-08-11T05:13:32.235Z,928.95
2018-08-11T05:14:32.225Z,928.93
2018-08-11T05:15:32.179Z,928.92
2018-08-11T05:16:32.170Z,928.98
2018-08-11T05:17:32.147Z,929.01
2018-08-11T05:18:32.125Z,929.04
2018-08-11T05:19:32.092Z,929.02
2018-08-11T05:20:32.074Z,929.05
2018-08-11T05:21:32.042Z,929.00
2018-08-11T05:22:32.015Z,929.05
2018-08-11T05:23:31.996Z,928.99
2018-08-11T05:24:31.971Z,928.97
2018-08-11T05:25:31.947Z,928.89
2018-08-11T05:26:31.916Z,928.90
2018-08-11T05:27:31.889Z,928.90
2018-08-11T05:28:31.858Z,928.87
2018-08-11T05:29:31.833Z,928.83
2018-08-11T05:30:31.806Z,928.92
2018-08-11T05:31:31.789Z,928.92
2018-08-11T05:32:31.753Z,928.95
2018-08-11T05:33:31.729Z,928.95
2018-08-11T05:34:31.689Z,928.94
2018-08-11T05:35:31.681Z,928.89
2018-08-11T05:36:31.653Z,928.93
2018-08-11T05:37:31.627Z,928.90
2018-08-11T05:38:31.602Z,928.88
2018-08-11T05:39:31.572Z,928.85
2018-08-11T05:40:31.550Z,928.88
2018-08-11T05:41:31.525Z,928.85
2018-08-11T05:42:31.496Z,928.84
2018-08-11T05:43:31.468Z,928.88
2018-08-11T05:44:31.440Z,928.90
2018-08-11T05:45:31.403Z,928.85
2018-08-11T05:46:31.428Z,928.88
2018-08-11T05:47:31.367Z,928.89
2018-08-11T05:48:31.342Z,928.90
2018-08-11T05:49:31.309Z,928.89
2018-08-11T05:50:31.284Z,928.87
2018-08-11T05:51:31.263Z,928.87
2018-08-11T05:52:31.238Z,928.90
2018-08-11T05:53:31.219Z,928.86
2018-08-11T05:54:31.166Z,928.87
2018-08-11T05:55:31.160Z,928.89
2018-08-11T05:56:31.131Z,928.82
2018-08-11T05:57:31.104Z,928.80
2018-08-11T05:58:31.086Z,928.80
2018-08-11T05:59:31.060Z,928.81
2018-08-11T06:00:31.028Z,928.80
2018-08-11T06:01:31.003Z,928.73
2018-08-11T06:02:30.973Z,928.74
2018-08-11T06:03:30.938Z,928.74
2018-08-11T06:04:30.905Z,928.74
2018-08-11T06:05:30.893Z,928.76
2018-08-11T06:06:30.874Z,928.71
2018-08-11T06:07:30.844Z,928.73
2018-08-11T06:08:30.797Z,928.70
2018-08-11T06:09:30.792Z,928.67
2018-08-11T06:10:30.790Z,928.67
2018-08-11T06:11:30.735Z,928.67
2018-08-11T06:12:30.712Z,928.67
2018-08-11T06:13:30.688Z,928.70
2018-08-11T06:14:30.660Z,928.68
2018-08-11T06:15:30.931Z,928.68
2018-08-11T06:16:30.587Z,928.67
2018-08-11T06:17:30.579Z,928.67
2018-08-11T06:18:30.533Z,928.65
2018-08-11T06:19:30.504Z,928.60
2018-08-11T06:20:30.503Z,928.59
2018-08-11T06:21:30.462Z,928.59
2018-08-11T06:22:30.443Z,928.52
2018-08-11T06:23:30.419Z,928.53
2018-08-11T06:24:30.396Z,928.47
2018-08-11T06:25:30.369Z,928.48
2018-08-11T06:26:30.341Z,928.47
2018-08-11T06:27:30.311Z,928.53
2018-08-11T06:28:30.291Z,928.52
2018-08-11T06:29:30.271Z,928.51
2018-08-11T06:30:30.235Z,928.51
2018-08-11T06:31:30.387Z,928.44
2018-08-11T06:32:30.179Z,928.47
2018-08-11T06:33:30.140Z,928.49
2018-08-11T06:34:30.130Z,928.35
2018-08-11T06:35:30.107Z,928.47
2018-08-11T06:36:30.078Z,928.49
2018-08-11T06:37:30.034Z,928.53
2018-08-11T06:38:30.033Z,928.52
2018-08-11T06:39:30.011Z,928.54
2018-08-11T06:40:29.981Z,928.49
2018-08-11T06:41:29.930Z,928.45
2018-08-11T06:42:29.914Z,928.46
2018-08-11T06:43:29.899Z,928.40
2018-08-11T06:44:29.849Z,928.42
2018-08-11T06:45:29.847Z,928.43
2018-08-11T06:46:29.821Z,928.43
2018-08-11T06:47:29.789Z,928.44
2018-08-11T06:48:29.763Z,928.44
2018-08-11T06:49:29.735Z,928.47
2018-08-11T06:50:29.686Z,928.48
2018-08-11T06:51:29.683Z,928.52
2018-08-11T06:52:29.661Z,928.45
2018-08-11T06:53:29.626Z,928.49
2018-08-11T06:54:29.604Z,928.50
2018-08-11T06:55:29.588Z,928.53
2018-08-11T06:56:29.550Z,928.47
2018-08-11T06:57:29.505Z,928.51
2018-08-11T06:58:29.497Z,928.51
2018-08-11T06:59:29.480Z,928.54
2018-08-11T07:00:29.446Z,928.52
2018-08-11T07:01:29.416Z,928.51
2018-08-11T07:02:29.374Z,928.54
2018-08-11T07:03:29.365Z,928.48
2018-08-11T07:04:29.336Z,928.48
2018-08-11T07:05:29.313Z,928.48
2018-08-11T07:06:29.328Z,928.50
2018-08-11T07:07:29.260Z,928.47
2018-08-11T07:08:29.229Z,928.48
2018-08-11T07:09:29.202Z,928.49
2018-08-11T07:10:29.186Z,928.45
2018-08-11T07:11:29.153Z,928.39
2018-08-11T07:12:29.131Z,928.47
2018-08-11T07:13:29.100Z,928.41
2018-08-11T07:14:29.079Z,928.37
2018-08-11T07:15:29.048Z,928.48
2018-08-11T07:16:29.019Z,928.46
2018-08-11T07:17:28.999Z,928.47
2018-08-11T07:18:28.967Z,928.46
2018-08-11T07:19:28.939Z,928.41
2018-08-11T07:20:28.911Z,928.33
2018-08-11T07:21:28.969Z,928.29
2018-08-11T07:22:28.865Z,928.30
2018-08-11T07:23:28.833Z,928.27
2018-08-11T07:24:28.805Z,928.30
2018-08-11T07:25:28.777Z,928.31
2018-08-11T07:26:28.820Z,928.32
2018-08-11T07:27:28.732Z,928.23
2018-08-11T07:28:28.712Z,928.30
2018-08-11T07:29:28.680Z,928.28
2018-08-11T07:30:28.628Z,928.24
2018-08-11T07:31:28.620Z,928.30
2018-08-11T07:32:28.599Z,928.36
2018-08-11T07:33:28.552Z,928.31
2018-08-11T07:34:28.544Z,928.34
2018-08-11T07:35:28.518Z,928.33
2018-08-11T07:36:28.635Z,928.27
2018-08-11T07:37:28.468Z,928.32
2018-08-11T07:38:28.425Z,928.29
2018-08-11T07:39:28.394Z,928.32
2018-08-11T07:40:28.385Z,928.41
2018-08-11T07:41:28.363Z,928.37
2018-08-11T07:42:28.331Z,928.35
2018-08-11T07:43:28.370Z,928.34
2018-08-11T07:44:28.279Z,928.35
2018-08-11T07:45:28.252Z,928.33
2018-08-11T07:46:28.224Z,928.34
2018-08-11T07:47:28.277Z,928.32
2018-08-11T07:48:28.198Z,928.30
2018-08-11T07:49:28.142Z,928.26
2018-08-11T07:50:28.254Z,928.29
2018-08-11T07:51:28.093Z,928.29
2018-08-11T07:52:28.046Z,928.26
2018-08-11T07:53:28.037Z,928.31
2018-08-11T07:54:27.992Z,928.33
2018-08-11T07:55:27.987Z,928.36
2018-08-11T07:56:27.957Z,928.27
2018-08-11T07:57:27.932Z,928.31
2018-08-11T07:58:27.905Z,928.29
2018-08-11T07:59:27.882Z,928.30
2018-08-11T08:00:27.853Z,928.28
2018-08-11T08:01:27.903Z,928.28
2018-08-11T08:02:27.794Z,928.27
2018-08-11T08:03:27.764Z,928.28
2018-08-11T08:04:27.745Z,928.25
2018-08-11T08:05:27.721Z,928.28
2018-08-11T08:06:27.687Z,928.25
2018-08-11T08:07:27.663Z,928.31
2018-08-11T08:08:27.644Z,928.32
2018-08-11T08:09:27.607Z,928.35
2018-08-11T08:10:27.582Z,928.30
2018-08-11T08:11:27.554Z,928.27
2018-08-11T08:12:27.534Z,928.32
2018-08-11T08:13:27.503Z,928.35
2018-08-11T08:14:27.479Z,928.31
2018-08-11T08:15:27.450Z,928.38
2018-08-11T08:16:27.427Z,928.33
2018-08-11T08:17:27.405Z,928.34
2018-08-11T08:18:27.368Z,928.38
2018-08-11T08:19:27.323Z,928.38
2018-08-11T08:20:27.312Z,928.41
2018-08-11T08:21:27.272Z,928.49
2018-08-11T08:22:27.262Z,928.49
2018-08-11T08:23:27.214Z,928.50
2018-08-11T08:24:27.217Z,928.52
2018-08-11T08:25:27.185Z,928.49
2018-08-11T08:26:27.330Z,928.49
2018-08-11T08:27:27.129Z,928.48
2018-08-11T08:28:27.084Z,928.41
2018-08-11T08:29:27.075Z,928.44
2018-08-11T08:30:27.044Z,928.46
2018-08-11T08:31:27.011Z,928.47
2018-08-11T08:32:26.998Z,928.44
2018-08-11T08:33:26.968Z,928.48
2018-08-11T08:34:26.923Z,928.49
2018-08-11T08:35:26.914Z,928.46
2018-08-11T08:36:26.883Z,928.47
2018-08-11T08:37:26.861Z,928.47
2018-08-11T08:38:26.813Z,928.49
2018-08-11T08:39:26.784Z,928.45
2018-08-11T08:40:26.781Z,928.48
2018-08-11T08:41:26.732Z,928.43
2018-08-11T08:42:26.731Z,928.45
2018-08-11T08:43:26.682Z,928.51
2018-08-11T08:44:26.681Z,928.51
2018-08-11T08:45:26.653Z,928.48
2018-08-11T08:46:26.622Z,928.55
2018-08-11T08:47:26.659Z,928.53
2018-08-11T08:48:26.564Z,928.55
2018-08-11T08:49:26.550Z,928.50
2018-08-11T08:50:26.513Z,928.52
2018-08-11T08:51:26.486Z,928.57
2018-08-11T08:52:26.464Z,928.61
2018-08-11T08:53:26.453Z,928.65
2018-08-11T08:54:26.401Z,928.71
2018-08-11T08:55:26.382Z,928.74
2018-08-11T08:56:26.357Z,928.75
2018-08-11T08:57:26.326Z,928.75
2018-08-11T08:58:26.295Z,928.81
2018-08-11T08:59:26.275Z,928.82
2018-08-11T09:00:26.250Z,928.82
2018-08-11T09:01:26.216Z,928.87
2018-08-11T09:02:26.199Z,928.88
2018-08-11T09:03:26.166Z,928.92
2018-08-11T09:04:26.137Z,928.97
2018-08-11T09:05:26.111Z,928.98
2018-08-11T09:06:26.086Z,929.00
2018-08-11T09:07:26.059Z,928.98
2018-08-11T09:08:26.011Z,929.04
2018-08-11T09:09:26.004Z,929.01
2018-08-11T09:10:25.962Z,929.01
2018-08-11T09:11:25.949Z,929.01
2018-08-11T09:12:25.919Z,929.04
2018-08-11T09:13:25.901Z,929.09
2018-08-11T09:14:25.869Z,929.14
2018-08-11T09:15:25.847Z,929.07
2018-08-11T09:16:25.815Z,929.14
2018-08-11T09:17:25.772Z,929.16
2018-08-11T09:18:25.769Z,929.13
2018-08-11T09:19:25.792Z,929.17
2018-08-11T09:20:25.708Z,929.16
2018-08-11T09:21:25.688Z,929.15
2018-08-11T09:22:25.657Z,929.21
2018-08-11T09:23:25.627Z,929.20
2018-08-11T09:24:25.599Z,929.19
2018-08-11T09:25:25.583Z,929.19
2018-08-11T09:26:25.546Z,929.21
2018-08-11T09:27:25.523Z,929.21
2018-08-11T09:28:25.492Z,929.22
2018-08-11T09:29:25.443Z,929.20
2018-08-11T09:30:25.439Z,929.19
2018-08-11T09:31:25.421Z,929.22
2018-08-11T09:32:25.371Z,929.27
2018-08-11T09:33:25.362Z,929.26
2018-08-11T09:34:25.334Z,929.28
2018-08-11T09:35:25.308Z,929.29
2018-08-11T09:36:25.273Z,929.31
2018-08-11T09:37:25.236Z,929.35
2018-08-11T09:38:25.225Z,929.33
2018-08-11T09:39:25.206Z,929.32
2018-08-11T09:40:25.152Z,929.38
2018-08-11T09:41:25.139Z,929.35
2018-08-11T09:42:25.125Z,929.39
2018-08-11T09:43:25.088Z,929.41
2018-08-11T09:44:25.064Z,929.46
2018-08-11T09:45:25.042Z,929.46
2018-08-11T09:46:25.007Z,929.44
2018-08-11T09:47:24.980Z,929.50
2018-08-11T09:48:24.958Z,929.48
2018-08-11T09:49:24.972Z,929.51
2018-08-11T09:50:24.899Z,929.55
2018-08-11T09:51:24.874Z,929.58
2018-08-11T09:52:24.927Z,929.57
2018-08-11T09:53:24.803Z,929.66
2018-08-11T09:54:24.793Z,929.68
2018-08-11T09:55:24.761Z,929.67
2018-08-11T09:56:24.736Z,929.68
2018-08-11T09:57:24.718Z,929.71
2018-08-11T09:58:24.665Z,929.74
2018-08-11T09:59:24.647Z,929.75
2018-08-11T10:00:24.616Z,929.78
2018-08-11T10:01:24.612Z,929.78
2018-08-11T10:02:24.583Z,929.81
2018-08-11T10:03:24.554Z,929.80
2018-08-11T10:04:24.534Z,929.88
2018-08-11T10:05:24.498Z,929.92
2018-08-11T10:06:24.473Z,929.90
2018-08-11T10:07:24.448Z,929.90
2018-08-11T10:08:24.419Z,929.94
2018-08-11T10:09:24.402Z,929.97
2018-08-11T10:10:24.355Z,929.96
2018-08-11T10:11:24.347Z,929.98
2018-08-11T10:12:24.303Z,929.98
2018-08-11T10:13:24.296Z,929.98
2018-08-11T10:14:24.268Z,930.02
2018-08-11T10:15:24.222Z,930.03
2018-08-11T10:16:24.213Z,929.99
2018-08-11T10:17:24.174Z,929.99
2018-08-11T10:18:24.212Z,930.05
2018-08-11T10:19:24.142Z,930.07
2018-08-11T10:20:24.117Z,930.13
2018-08-11T10:21:24.071Z,930.10
2018-08-11T10:22:24.069Z,930.12
2018-08-11T10:23:24.023Z,930.18
2018-08-11T10:24:24.016Z,930.17
2018-08-11T10:25:23.989Z,930.28
2018-08-11T10:26:23.965Z,930.28
2018-08-11T10:27:23.926Z,930.29
2018-08-11T10:28:23.926Z,930.32
2018-08-11T10:29:23.897Z,930.36
2018-08-11T10:30:23.877Z,930.37
2018-08-11T10:31:23.852Z,930.36
2018-08-11T10:32:23.806Z,930.43
2018-08-11T10:33:23.782Z,930.42
2018-08-11T10:34:23.773Z,930.47
2018-08-11T10:35:23.755Z,930.52
2018-08-11T10:36:23.733Z,930.59
2018-08-11T10:37:23.708Z,930.66
2018-08-11T10:38:23.690Z,930.67
2018-08-11T10:39:23.669Z,930.69
2018-08-11T10:40:23.647Z,930.70
2018-08-11T10:41:23.625Z,930.72
2018-08-11T10:42:23.592Z,930.78
2018-08-11T10:43:23.569Z,930.82
2018-08-11T10:44:23.542Z,930.81
2018-08-11T10:45:23.507Z,930.75
2018-08-11T10:46:23.509Z,930.78
2018-08-11T10:47:23.477Z,930.84
2018-08-11T10:48:23.458Z,930.90
2018-08-11T10:49:23.419Z,930.97
2018-08-11T10:50:23.414Z,931.00
2018-08-11T10:51:23.385Z,931.07
2018-08-11T10:52:23.372Z,931.06
2018-08-11T10:53:23.337Z,931.11
2018-08-11T10:54:23.306Z,931.09
2018-08-11T10:55:23.296Z,931.12
2018-08-11T10:56:23.263Z,931.12
2018-08-11T10:57:23.256Z,931.13
2018-08-11T10:58:23.228Z,931.17
2018-08-11T10:59:23.205Z,931.30
2018-08-11T11:00:23.184Z,931.61
2018-08-11T11:01:23.206Z,932.29
2018-08-11T11:02:23.137Z,932.73
2018-08-11T11:03:23.118Z,932.72
2018-08-11T11:04:23.093Z,932.51
2018-08-11T11:05:23.079Z,932.37
2018-08-11T11:06:23.047Z,932.27
2018-08-11T11:07:23.027Z,932.31
2018-08-11T11:08:23.065Z,932.26
2018-08-11T11:09:22.984Z,932.18
2018-08-11T11:10:22.963Z,932.16
2018-08-11T11:11:22.923Z,932.07
2018-08-11T11:12:22.917Z,932.04
2018-08-11T11:13:22.880Z,932.10
2018-08-11T11:14:22.945Z,931.98
2018-08-11T11:15:22.831Z,931.85
2018-08-11T11:16:22.829Z,931.97
2018-08-11T11:17:22.813Z,931.99
2018-08-11T11:18:22.787Z,931.86
2018-08-11T11:19:22.770Z,931.66
2018-08-11T11:20:22.751Z,931.69
2018-08-11T11:21:22.721Z,931.69
2018-08-11T11:22:22.708Z,931.67
2018-08-11T11:23:22.674Z,931.69
2018-08-11T11:24:22.640Z,931.66
2018-08-11T11:25:22.618Z,931.70
2018-08-11T11:26:22.613Z,931.72
2018-08-11T11:27:22.594Z,931.74
2018-08-11T11:28:22.553Z,931.70
2018-08-11T11:29:22.529Z,931.61
2018-08-11T11:30:22.528Z,931.67
2018-08-11T11:31:22.511Z,931.73
2018-08-11T11:32:22.468Z,931.76
2018-08-11T11:33:22.470Z,931.75
2018-08-11T11:34:22.443Z,931.80
2018-08-11T11:35:22.414Z,931.90
2018-08-11T11:36:22.400Z,931.94
2018-08-11T11:37:22.381Z,931.91
2018-08-11T11:38:22.356Z,931.99
2018-08-11T11:39:22.314Z,932.01
2018-08-11T11:40:22.295Z,932.02
2018-08-11T11:41:22.293Z,932.02
2018-08-11T11:42:22.274Z,932.04
2018-08-11T11:43:22.264Z,931.97
2018-08-11T11:44:22.230Z,932.05
2018-08-11T11:45:22.209Z,932.03
2018-08-11T11:46:22.180Z,932.03
2018-08-11T11:47:22.142Z,932.11
2018-08-11T11:48:22.120Z,932.14
2018-08-11T11:49:22.124Z,932.08
2018-08-11T11:50:22.098Z,932.11
2018-08-11T11:51:22.079Z,932.12
2018-08-11T11:52:22.055Z,932.19
2018-08-11T11:53:22.039Z,932.09
2018-08-11T11:54:22.015Z,932.13
2018-08-11T11:55:21.995Z,932.20
2018-08-11T11:56:21.977Z,932.16
2018-08-11T11:57:21.952Z,932.18
2018-08-11T11:58:21.939Z,932.22
2018-08-11T11:59:21.915Z,932.23
2018-08-11T12:00:21.893Z,932.22
2018-08-11T12:01:21.868Z,932.25
2018-08-11T12:02:21.847Z,932.29
2018-08-11T12:03:21.831Z,932.38
2018-08-11T12:04:21.805Z,932.41
2018-08-11T12:05:21.786Z,932.37
2018-08-11T12:06:21.771Z,932.38
2018-08-11T12:07:21.745Z,932.38
2018-08-11T12:08:21.731Z,932.36
2018-08-11T12:09:21.690Z,932.36
2018-08-11T12:10:21.683Z,932.37
2018-08-11T12:11:21.667Z,932.43
2018-08-11T12:12:21.651Z,932.46
2018-08-11T12:13:21.630Z,932.51
2018-08-11T12:14:21.606Z,932.49
2018-08-11T12:15:21.567Z,932.56
2018-08-11T12:16:21.568Z,932.53
2018-08-11T12:17:21.550Z,932.51
2018-08-11T12:18:21.527Z,932.51
2018-08-11T12:19:21.525Z,932.50
2018-08-11T12:20:21.586Z,932.46
2018-08-11T12:21:21.474Z,932.43
2018-08-11T12:22:21.450Z,932.42
2018-08-11T12:23:21.434Z,932.41
2018-08-11T12:24:21.413Z,932.53
2018-08-11T12:25:21.397Z,932.56
2018-08-11T12:26:21.370Z,932.56
2018-08-11T12:27:21.349Z,932.59
2018-08-11T12:28:21.333Z,932.64